Aviation Digital Data Service (ADDS)

Output produced by METARs form (1406 UTC 21 August 2019)
found at http://www.aviationweather.gov/metar/data/
 
METAR text: LOWW 211350Z 33013KT 9999 FEW030 BKN038 21/12 Q1026 NOSIG
Conditions at: LOWW (VIENNA/SCHWECHAT, AT) observed 1350 UTC 21 August 2019
Temperature: 21.0°C (70°F)
Dewpoint: 12.0°C (54°F) [RH = 56%]
Pressure (altimeter): 30.30 inches Hg (1026.0 mb)
Winds: from the NNW (330 degrees) at 15 MPH (13 knots; 6.7 m/s)
Visibility: 6 or more miles (10+ km)
Ceiling: 3800 feet AGL
Clouds: few clouds at 3000 feet AGL
broken clouds at 3800 feet AGL
Weather: no significant weather observed at this time

METAR text: LOWW 211320Z 31013KT 9999 FEW030 BKN036 21/13 Q1027 NOSIG
Conditions at: LOWW (VIENNA/SCHWECHAT, AT) observed 1320 UTC 21 August 2019
Temperature: 21.0°C (70°F)
Dewpoint: 13.0°C (55°F) [RH = 60%]
Pressure (altimeter): 30.32 inches Hg (1027.0 mb)
Winds: from the NW (310 degrees) at 15 MPH (13 knots; 6.7 m/s)
Visibility: 6 or more miles (10+ km)
Ceiling: 3600 feet AGL
Clouds: few clouds at 3000 feet AGL
broken clouds at 3600 feet AGL
Weather: no significant weather observed at this time

METAR text: LOWW 211250Z 31012KT 9999 FEW028 BKN033 20/12 Q1027 NOSIG
Conditions at: LOWW (VIENNA/SCHWECHAT, AT) observed 1250 UTC 21 August 2019
Temperature: 20.0°C (68°F)
Dewpoint: 12.0°C (54°F) [RH = 60%]
Pressure (altimeter): 30.32 inches Hg (1027.0 mb)
Winds: from the NW (310 degrees) at 14 MPH (12 knots; 6.2 m/s)
Visibility: 6 or more miles (10+ km)
Ceiling: 3300 feet AGL
Clouds: few clouds at 2800 feet AGL
broken clouds at 3300 feet AGL
Weather: no significant weather observed at this time

METAR text: LOWW 211220Z 32014KT 9999 SCT035 BKN180 19/12 Q1027 NOSIG
Conditions at: LOWW (VIENNA/SCHWECHAT, AT) observed 1220 UTC 21 August 2019
Temperature: 19.0°C (66°F)
Dewpoint: 12.0°C (54°F) [RH = 64%]
Pressure (altimeter): 30.32 inches Hg (1027.0 mb)
Winds: from the NW (320 degrees) at 16 MPH (14 knots; 7.2 m/s)
Visibility: 6 or more miles (10+ km)
Ceiling: 18000 feet AGL
Clouds: scattered clouds at 3500 feet AGL
broken clouds at 18000 feet AGL
Weather: no significant weather observed at this time

METAR text: LOWW 211150Z 32013KT 9999 FEW035 SCT075 BKN200 19/12 Q1027 NOSIG
Conditions at: LOWW (VIENNA/SCHWECHAT, AT) observed 1150 UTC 21 August 2019
Temperature: 19.0°C (66°F)
Dewpoint: 12.0°C (54°F) [RH = 64%]
Pressure (altimeter): 30.32 inches Hg (1027.0 mb)
Winds: from the NW (320 degrees) at 15 MPH (13 knots; 6.7 m/s)
Visibility: 6 or more miles (10+ km)
Ceiling: 20000 feet AGL
Clouds: few clouds at 3500 feet AGL
scattered clouds at 7500 feet AGL
broken clouds at 20000 feet AGL
Weather: no significant weather observed at this time

METAR text: LOWW 211120Z 32013KT 9999 FEW035 SCT080 BKN200 19/13 Q1027 NOSIG
Conditions at: LOWW (VIENNA/SCHWECHAT, AT) observed 1120 UTC 21 August 2019
Temperature: 19.0°C (66°F)
Dewpoint: 13.0°C (55°F) [RH = 68%]
Pressure (altimeter): 30.32 inches Hg (1027.0 mb)
Winds: from the NW (320 degrees) at 15 MPH (13 knots; 6.7 m/s)
Visibility: 6 or more miles (10+ km)
Ceiling: 20000 feet AGL
Clouds: few clouds at 3500 feet AGL
scattered clouds at 8000 feet AGL
broken clouds at 20000 feet AGL
Weather: no significant weather observed at this time

METAR text: LOWW 211050Z 32016KT 9999 VCSH FEW030 BKN080 19/12 Q1027 TEMPO SHRA
Conditions at: LOWW (VIENNA/SCHWECHAT, AT) observed 1050 UTC 21 August 2019
Temperature: 19.0°C (66°F)
Dewpoint: 12.0°C (54°F) [RH = 64%]
Pressure (altimeter): 30.32 inches Hg (1027.0 mb)
Winds: from the NW (320 degrees) at 18 MPH (16 knots; 8.2 m/s)
Visibility: 6 or more miles (10+ km)
Ceiling: 8000 feet AGL
Clouds: few clouds at 3000 feet AGL
broken clouds at 8000 feet AGL
Weather: VCSH  (showers in vicinity)

METAR text: LOWW 211020Z 32016KT 290V350 9999 FEW025 SCT030 FEW100TCU BKN120 20/12 Q1027 NOSIG
Conditions at: LOWW (VIENNA/SCHWECHAT, AT) observed 1020 UTC 21 August 2019
Temperature: 20.0°C (68°F)
Dewpoint: 12.0°C (54°F) [RH = 60%]
Pressure (altimeter): 30.32 inches Hg (1027.0 mb)
Winds: from the NW (320 degrees) at 18 MPH (16 knots; 8.2 m/s)
Visibility: 6 or more miles (10+ km)
Ceiling: 12000 feet AGL
Clouds: few clouds at 2500 feet AGL
scattered clouds at 3000 feet AGL
few clouds at 10000 feet AGL
broken clouds at 12000 feet AGL
Weather: no significant weather observed at this time

METAR text: LOWW 210950Z 31017KT 9999 FEW025 SCT080 FEW100TCU BKN120 20/12 Q1027 NOSIG
Conditions at: LOWW (VIENNA/SCHWECHAT, AT) observed 0950 UTC 21 August 2019
Temperature: 20.0°C (68°F)
Dewpoint: 12.0°C (54°F) [RH = 60%]
Pressure (altimeter): 30.32 inches Hg (1027.0 mb)
Winds: from the NW (310 degrees) at 20 MPH (17 knots; 8.7 m/s)
Visibility: 6 or more miles (10+ km)
Ceiling: 12000 feet AGL
Clouds: few clouds at 2500 feet AGL
scattered clouds at 8000 feet AGL
few clouds at 10000 feet AGL
broken clouds at 12000 feet AGL
Weather: no significant weather observed at this time

METAR text: LOWW 210920Z 32017KT 9999 FEW025 SCT080 FEW100TCU BKN120 19/12 Q1027 NOSIG
Conditions at: LOWW (VIENNA/SCHWECHAT, AT) observed 0920 UTC 21 August 2019
Temperature: 19.0°C (66°F)
Dewpoint: 12.0°C (54°F) [RH = 64%]
Pressure (altimeter): 30.32 inches Hg (1027.0 mb)
Winds: from the NW (320 degrees) at 20 MPH (17 knots; 8.7 m/s)
Visibility: 6 or more miles (10+ km)
Ceiling: 12000 feet AGL
Clouds: few clouds at 2500 feet AGL
scattered clouds at 8000 feet AGL
few clouds at 10000 feet AGL
broken clouds at 12000 feet AGL
Weather: no significant weather observed at this time

METAR text: LOWW 210850Z 32018KT 9999 FEW025 SCT080 FEW100TCU BKN110 20/12 Q1027 NOSIG
Conditions at: LOWW (VIENNA/SCHWECHAT, AT) observed 0850 UTC 21 August 2019
Temperature: 20.0°C (68°F)
Dewpoint: 12.0°C (54°F) [RH = 60%]
Pressure (altimeter): 30.32 inches Hg (1027.0 mb)
Winds: from the NW (320 degrees) at 21 MPH (18 knots; 9.3 m/s)
Visibility: 6 or more miles (10+ km)
Ceiling: 11000 feet AGL
Clouds: few clouds at 2500 feet AGL
scattered clouds at 8000 feet AGL
few clouds at 10000 feet AGL
broken clouds at 11000 feet AGL
Weather: no significant weather observed at this time

METAR text: LOWW 210820Z 32018KT 9999 SCT025 FEW100TCU BKN110 19/12 Q1026 NOSIG
Conditions at: LOWW (VIENNA/SCHWECHAT, AT) observed 0820 UTC 21 August 2019
Temperature: 19.0°C (66°F)
Dewpoint: 12.0°C (54°F) [RH = 64%]
Pressure (altimeter): 30.30 inches Hg (1026.0 mb)
Winds: from the NW (320 degrees) at 21 MPH (18 knots; 9.3 m/s)
Visibility: 6 or more miles (10+ km)
Ceiling: 11000 feet AGL
Clouds: scattered clouds at 2500 feet AGL
few clouds at 10000 feet AGL
broken clouds at 11000 feet AGL
Weather: no significant weather observed at this time

METAR text: LOWW 210750Z 31016KT 9999 -SHRA SCT025 BKN110 19/13 Q1027 NOSIG
Conditions at: LOWW (VIENNA/SCHWECHAT, AT) observed 0750 UTC 21 August 2019
Temperature: 19.0°C (66°F)
Dewpoint: 13.0°C (55°F) [RH = 68%]
Pressure (altimeter): 30.32 inches Hg (1027.0 mb)
Winds: from the NW (310 degrees) at 18 MPH (16 knots; 8.2 m/s)
Visibility: 6 or more miles (10+ km)
Ceiling: 11000 feet AGL
Clouds: scattered clouds at 2500 feet AGL
broken clouds at 11000 feet AGL
Weather: -SHRA  (light rain showers)

METAR text: LOWW 210720Z 32015KT 290V350 9999 SCT025 BKN180 18/12 Q1026 NOSIG
Conditions at: LOWW (VIENNA/SCHWECHAT, AT) observed 0720 UTC 21 August 2019
Temperature: 18.0°C (64°F)
Dewpoint: 12.0°C (54°F) [RH = 68%]
Pressure (altimeter): 30.30 inches Hg (1026.0 mb)
Winds: from the NW (320 degrees) at 17 MPH (15 knots; 7.7 m/s)
Visibility: 6 or more miles (10+ km)
Ceiling: 18000 feet AGL
Clouds: scattered clouds at 2500 feet AGL
broken clouds at 18000 feet AGL
Weather: no significant weather observed at this time

METAR text: LOWW 210650Z 31016KT 9999 BKN025 18/12 Q1026 NOSIG
Conditions at: LOWW (VIENNA/SCHWECHAT, AT) observed 0650 UTC 21 August 2019
Temperature: 18.0°C (64°F)
Dewpoint: 12.0°C (54°F) [RH = 68%]
Pressure (altimeter): 30.30 inches Hg (1026.0 mb)
Winds: from the NW (310 degrees) at 18 MPH (16 knots; 8.2 m/s)
Visibility: 6 or more miles (10+ km)
Ceiling: 2500 feet AGL
Clouds: broken clouds at 2500 feet AGL
Weather: no significant weather observed at this time

METAR text: LOWW 210620Z 31017G27KT 9999 SCT025 SCT045 BKN190 18/12 Q1026 NOSIG
Conditions at: LOWW (VIENNA/SCHWECHAT, AT) observed 0620 UTC 21 August 2019
Temperature: 18.0°C (64°F)
Dewpoint: 12.0°C (54°F) [RH = 68%]
Pressure (altimeter): 30.30 inches Hg (1026.0 mb)
Winds: from the NW (310 degrees) at 20 MPH (17 knots; 8.7 m/s)
gusting to 31 MPH (27 knots; 13.9 m/s)
Visibility: 6 or more miles (10+ km)
Ceiling: 19000 feet AGL
Clouds: scattered clouds at 2500 feet AGL
scattered clouds at 4500 feet AGL
broken clouds at 19000 feet AGL
Weather: no significant weather observed at this time

METAR text: LOWW 210550Z 31018KT 9999 SCT025 SCT040 BKN190 18/12 Q1026 NOSIG
Conditions at: LOWW (VIENNA/SCHWECHAT, AT) observed 0550 UTC 21 August 2019
Temperature: 18.0°C (64°F)
Dewpoint: 12.0°C (54°F) [RH = 68%]
Pressure (altimeter): 30.30 inches Hg (1026.0 mb)
Winds: from the NW (310 degrees) at 21 MPH (18 knots; 9.3 m/s)
Visibility: 6 or more miles (10+ km)
Ceiling: 19000 feet AGL
Clouds: scattered clouds at 2500 feet AGL
scattered clouds at 4000 feet AGL
broken clouds at 19000 feet AGL
Weather: no significant weather observed at this time

METAR text: LOWW 210520Z 31018KT 9999 FEW020 SCT025 BKN190 18/12 Q1025 NOSIG
Conditions at: LOWW (VIENNA/SCHWECHAT, AT) observed 0520 UTC 21 August 2019
Temperature: 18.0°C (64°F)
Dewpoint: 12.0°C (54°F) [RH = 68%]
Pressure (altimeter): 30.27 inches Hg (1025.0 mb)
Winds: from the NW (310 degrees) at 21 MPH (18 knots; 9.3 m/s)
Visibility: 6 or more miles (10+ km)
Ceiling: 19000 feet AGL
Clouds: few clouds at 2000 feet AGL
scattered clouds at 2500 feet AGL
broken clouds at 19000 feet AGL
Weather: no significant weather observed at this time

METAR text: LOWW 210450Z 31017KT 9999 FEW022 SCT026 BKN190 18/12 Q1025 NOSIG
Conditions at: LOWW (VIENNA/SCHWECHAT, AT) observed 0450 UTC 21 August 2019
Temperature: 18.0°C (64°F)
Dewpoint: 12.0°C (54°F) [RH = 68%]
Pressure (altimeter): 30.27 inches Hg (1025.0 mb)
Winds: from the NW (310 degrees) at 20 MPH (17 knots; 8.7 m/s)
Visibility: 6 or more miles (10+ km)
Ceiling: 19000 feet AGL
Clouds: few clouds at 2200 feet AGL
scattered clouds at 2600 feet AGL
broken clouds at 19000 feet AGL
Weather: no significant weather observed at this time

METAR text: LOWW 210420Z 31018KT 9999 FEW022 BKN025 18/13 Q1024 NOSIG
Conditions at: LOWW (VIENNA/SCHWECHAT, AT) observed 0420 UTC 21 August 2019
Temperature: 18.0°C (64°F)
Dewpoint: 13.0°C (55°F) [RH = 73%]
Pressure (altimeter): 30.24 inches Hg (1024.0 mb)
Winds: from the NW (310 degrees) at 21 MPH (18 knots; 9.3 m/s)
Visibility: 6 or more miles (10+ km)
Ceiling: 2500 feet AGL
Clouds: few clouds at 2200 feet AGL
broken clouds at 2500 feet AGL
Weather: no significant weather observed at this time

METAR text: LOWW 210350Z 31017KT 280V340 9999 FEW022 BKN024 18/13 Q1024 NOSIG
Conditions at: LOWW (VIENNA/SCHWECHAT, AT) observed 0350 UTC 21 August 2019
Temperature: 18.0°C (64°F)
Dewpoint: 13.0°C (55°F) [RH = 73%]
Pressure (altimeter): 30.24 inches Hg (1024.0 mb)
Winds: from the NW (310 degrees) at 20 MPH (17 knots; 8.7 m/s)
Visibility: 6 or more miles (10+ km)
Ceiling: 2400 feet AGL
Clouds: few clouds at 2200 feet AGL
broken clouds at 2400 feet AGL
Weather: no significant weather observed at this time

METAR text: LOWW 210320Z 30019KT 9999 FEW022 BKN026 18/13 Q1023 NOSIG
Conditions at: LOWW (VIENNA/SCHWECHAT, AT) observed 0320 UTC 21 August 2019
Temperature: 18.0°C (64°F)
Dewpoint: 13.0°C (55°F) [RH = 73%]
Pressure (altimeter): 30.21 inches Hg (1023.0 mb)
Winds: from the WNW (300 degrees) at 22 MPH (19 knots; 9.8 m/s)
Visibility: 6 or more miles (10+ km)
Ceiling: 2600 feet AGL
Clouds: few clouds at 2200 feet AGL
broken clouds at 2600 feet AGL
Weather: no significant weather observed at this time

METAR text: LOWW 210250Z 31017KT 9999 FEW018 BKN026 18/14 Q1023 NOSIG
Conditions at: LOWW (VIENNA/SCHWECHAT, AT) observed 0250 UTC 21 August 2019
Temperature: 18.0°C (64°F)
Dewpoint: 14.0°C (57°F) [RH = 77%]
Pressure (altimeter): 30.21 inches Hg (1023.0 mb)
Winds: from the NW (310 degrees) at 20 MPH (17 knots; 8.7 m/s)
Visibility: 6 or more miles (10+ km)
Ceiling: 2600 feet AGL
Clouds: few clouds at 1800 feet AGL
broken clouds at 2600 feet AGL
Weather: no significant weather observed at this time

METAR text: LOWW 210220Z 31017KT 9999 FEW018 BKN025 19/14 Q1023 NOSIG
Conditions at: LOWW (VIENNA/SCHWECHAT, AT) observed 0220 UTC 21 August 2019
Temperature: 19.0°C (66°F)
Dewpoint: 14.0°C (57°F) [RH = 73%]
Pressure (altimeter): 30.21 inches Hg (1023.0 mb)
Winds: from the NW (310 degrees) at 20 MPH (17 knots; 8.7 m/s)
Visibility: 6 or more miles (10+ km)
Ceiling: 2500 feet AGL
Clouds: few clouds at 1800 feet AGL
broken clouds at 2500 feet AGL
Weather: no significant weather observed at this time

METAR text: LOWW 210150Z 30022KT 9999 FEW014 SCT017 BKN023 19/15 Q1022 NOSIG
Conditions at: LOWW (VIENNA/SCHWECHAT, AT) observed 0150 UTC 21 August 2019
Temperature: 19.0°C (66°F)
Dewpoint: 15.0°C (59°F) [RH = 78%]
Pressure (altimeter): 30.18 inches Hg (1022.0 mb)
Winds: from the WNW (300 degrees) at 25 MPH (22 knots; 11.3 m/s)
Visibility: 6 or more miles (10+ km)
Ceiling: 2300 feet AGL
Clouds: few clouds at 1400 feet AGL
scattered clouds at 1700 feet AGL
broken clouds at 2300 feet AGL
Weather: no significant weather observed at this time

METAR text: LOWW 210120Z 29018G29KT 9999 FEW025 SCT060 BKN085 21/15 Q1021 NOSIG
Conditions at: LOWW (VIENNA/SCHWECHAT, AT) observed 0120 UTC 21 August 2019
Temperature: 21.0°C (70°F)
Dewpoint: 15.0°C (59°F) [RH = 69%]
Pressure (altimeter): 30.15 inches Hg (1021.0 mb)
Winds: from the WNW (290 degrees) at 21 MPH (18 knots; 9.3 m/s)
gusting to 33 MPH (29 knots; 14.9 m/s)
Visibility: 6 or more miles (10+ km)
Ceiling: 8500 feet AGL
Clouds: few clouds at 2500 feet AGL
scattered clouds at 6000 feet AGL
broken clouds at 8500 feet AGL
Weather: no significant weather observed at this time

METAR text: LOWW 210050Z 29025G35KT CAVOK 22/16 Q1020 NOSIG
Conditions at: LOWW (VIENNA/SCHWECHAT, AT) observed 0050 UTC 21 August 2019
Temperature: 22.0°C (72°F)
Dewpoint: 16.0°C (61°F) [RH = 69%]
Pressure (altimeter): 30.12 inches Hg (1020.0 mb)
Winds: from the WNW (290 degrees) at 29 MPH (25 knots; 12.9 m/s)
gusting to 40 MPH (35 knots; 18.0 m/s)
Visibility: 6 or more miles (10+ km)
Ceiling: ceiling and visibility are OK
Clouds: unknown
Weather: no significant weather observed at this time

METAR text: LOWW 210020Z 29022G33KT 9999 FEW050 SCT070 22/17 Q1020 NOSIG
Conditions at: LOWW (VIENNA/SCHWECHAT, AT) observed 0020 UTC 21 August 2019
Temperature: 22.0°C (72°F)
Dewpoint: 17.0°C (63°F) [RH = 73%]
Pressure (altimeter): 30.12 inches Hg (1020.0 mb)
Winds: from the WNW (290 degrees) at 25 MPH (22 knots; 11.3 m/s)
gusting to 38 MPH (33 knots; 17.0 m/s)
Visibility: 6 or more miles (10+ km)
Ceiling: at least 12,000 feet AGL
Clouds: few clouds at 5000 feet AGL
scattered clouds at 7000 feet AGL
Weather: no significant weather observed at this time

METAR text: LOWW 202350Z 29016KT CAVOK 23/16 Q1019 NOSIG
Conditions at: LOWW (VIENNA/SCHWECHAT, AT) observed 2350 UTC 20 August 2019
Temperature: 23.0°C (73°F)
Dewpoint: 16.0°C (61°F) [RH = 65%]
Pressure (altimeter): 30.09 inches Hg (1019.0 mb)
Winds: from the WNW (290 degrees) at 18 MPH (16 knots; 8.2 m/s)
Visibility: 6 or more miles (10+ km)
Ceiling: ceiling and visibility are OK
Clouds: unknown
Weather: no significant weather observed at this time

METAR text: LOWW 202320Z 29019KT 9999 FEW050 24/16 Q1019 NOSIG
Conditions at: LOWW (VIENNA/SCHWECHAT, AT) observed 2320 UTC 20 August 2019
Temperature: 24.0°C (75°F)
Dewpoint: 16.0°C (61°F) [RH = 61%]
Pressure (altimeter): 30.09 inches Hg (1019.0 mb)
Winds: from the WNW (290 degrees) at 22 MPH (19 knots; 9.8 m/s)
Visibility: 6 or more miles (10+ km)
Ceiling: at least 12,000 feet AGL
Clouds: few clouds at 5000 feet AGL
Weather: no significant weather observed at this time

METAR text: LOWW 202250Z 29019KT CAVOK 24/17 Q1018 NOSIG
Conditions at: LOWW (VIENNA/SCHWECHAT, AT) observed 2250 UTC 20 August 2019
Temperature: 24.0°C (75°F)
Dewpoint: 17.0°C (63°F) [RH = 65%]
Pressure (altimeter): 30.06 inches Hg (1018.0 mb)
Winds: from the WNW (290 degrees) at 22 MPH (19 knots; 9.8 m/s)
Visibility: 6 or more miles (10+ km)
Ceiling: ceiling and visibility are OK
Clouds: unknown
Weather: no significant weather observed at this time

METAR text: LOWW 202220Z 28018KT CAVOK 25/18 Q1018 NOSIG
Conditions at: LOWW (VIENNA/SCHWECHAT, AT) observed 2220 UTC 20 August 2019
Temperature: 25.0°C (77°F)
Dewpoint: 18.0°C (64°F) [RH = 65%]
Pressure (altimeter): 30.06 inches Hg (1018.0 mb)
Winds: from the W (280 degrees) at 21 MPH (18 knots; 9.3 m/s)
Visibility: 6 or more miles (10+ km)
Ceiling: ceiling and visibility are OK
Clouds: unknown
Weather: no significant weather observed at this time

METAR text: LOWW 202150Z 19010KT CAVOK 26/17 Q1017 BECMG 30012KT
Conditions at: LOWW (VIENNA/SCHWECHAT, AT) observed 2150 UTC 20 August 2019
Temperature: 26.0°C (79°F)
Dewpoint: 17.0°C (63°F) [RH = 58%]
Pressure (altimeter): 30.03 inches Hg (1017.0 mb)
Winds: from the S (190 degrees) at 12 MPH (10 knots; 5.1 m/s)
Visibility: 6 or more miles (10+ km)
Ceiling: ceiling and visibility are OK
Clouds: unknown
Weather: no significant weather observed at this time

METAR text: LOWW 202120Z 17011KT CAVOK 26/17 Q1016 BECMG 30012KT
Conditions at: LOWW (VIENNA/SCHWECHAT, AT) observed 2120 UTC 20 August 2019
Temperature: 26.0°C (79°F)
Dewpoint: 17.0°C (63°F) [RH = 58%]
Pressure (altimeter): 30.00 inches Hg (1016.0 mb)
Winds: from the S (170 degrees) at 13 MPH (11 knots; 5.7 m/s)
Visibility: 6 or more miles (10+ km)
Ceiling: ceiling and visibility are OK
Clouds: unknown
Weather: no significant weather observed at this time

METAR text: LOWW 202050Z 17007KT CAVOK 24/17 Q1016 BECMG FM2200 30012KT
Conditions at: LOWW (VIENNA/SCHWECHAT, AT) observed 2050 UTC 20 August 2019
Temperature: 24.0°C (75°F)
Dewpoint: 17.0°C (63°F) [RH = 65%]
Pressure (altimeter): 30.00 inches Hg (1016.0 mb)
Winds: from the S (170 degrees) at 8 MPH (7 knots; 3.6 m/s)
Visibility: 6 or more miles (10+ km)
Ceiling: ceiling and visibility are OK
Clouds: unknown
Weather: no significant weather observed at this time

METAR text: LOWW 202020Z 15006KT CAVOK 25/17 Q1017 BECMG FM2200 30012KT
Conditions at: LOWW (VIENNA/SCHWECHAT, AT) observed 2020 UTC 20 August 2019
Temperature: 25.0°C (77°F)
Dewpoint: 17.0°C (63°F) [RH = 61%]
Pressure (altimeter): 30.03 inches Hg (1017.0 mb)
Winds: from the SSE (150 degrees) at 7 MPH (6 knots; 3.1 m/s)
Visibility: 6 or more miles (10+ km)
Ceiling: ceiling and visibility are OK
Clouds: unknown
Weather: no significant weather observed at this time

METAR text: LOWW 201950Z 15008KT CAVOK 25/17 Q1017 NOSIG
Conditions at: LOWW (VIENNA/SCHWECHAT, AT) observed 1950 UTC 20 August 2019
Temperature: 25.0°C (77°F)
Dewpoint: 17.0°C (63°F) [RH = 61%]
Pressure (altimeter): 30.03 inches Hg (1017.0 mb)
Winds: from the SSE (150 degrees) at 9 MPH (8 knots; 4.1 m/s)
Visibility: 6 or more miles (10+ km)
Ceiling: ceiling and visibility are OK
Clouds: unknown
Weather: no significant weather observed at this time

METAR text: LOWW 201920Z 15006KT CAVOK 26/17 Q1017 NOSIG
Conditions at: LOWW (VIENNA/SCHWECHAT, AT) observed 1920 UTC 20 August 2019
Temperature: 26.0°C (79°F)
Dewpoint: 17.0°C (63°F) [RH = 58%]
Pressure (altimeter): 30.03 inches Hg (1017.0 mb)
Winds: from the SSE (150 degrees) at 7 MPH (6 knots; 3.1 m/s)
Visibility: 6 or more miles (10+ km)
Ceiling: ceiling and visibility are OK
Clouds: unknown
Weather: no significant weather observed at this time

METAR text: LOWW 201850Z 16009KT CAVOK 27/17 Q1017 NOSIG
Conditions at: LOWW (VIENNA/SCHWECHAT, AT) observed 1850 UTC 20 August 2019
Temperature: 27.0°C (81°F)
Dewpoint: 17.0°C (63°F) [RH = 54%]
Pressure (altimeter): 30.03 inches Hg (1017.0 mb)
Winds: from the SSE (160 degrees) at 10 MPH (9 knots; 4.6 m/s)
Visibility: 6 or more miles (10+ km)
Ceiling: ceiling and visibility are OK
Clouds: unknown
Weather: no significant weather observed at this time

METAR text: LOWW 201820Z 15009KT CAVOK 28/17 Q1017 NOSIG
Conditions at: LOWW (VIENNA/SCHWECHAT, AT) observed 1820 UTC 20 August 2019
Temperature: 28.0°C (82°F)
Dewpoint: 17.0°C (63°F) [RH = 51%]
Pressure (altimeter): 30.03 inches Hg (1017.0 mb)
Winds: from the SSE (150 degrees) at 10 MPH (9 knots; 4.6 m/s)
Visibility: 6 or more miles (10+ km)
Ceiling: ceiling and visibility are OK
Clouds: unknown
Weather: no significant weather observed at this time

METAR text: LOWW 201750Z 15008KT CAVOK 28/17 Q1017 NOSIG
Conditions at: LOWW (VIENNA/SCHWECHAT, AT) observed 1750 UTC 20 August 2019
Temperature: 28.0°C (82°F)
Dewpoint: 17.0°C (63°F) [RH = 51%]
Pressure (altimeter): 30.03 inches Hg (1017.0 mb)
Winds: from the SSE (150 degrees) at 9 MPH (8 knots; 4.1 m/s)
Visibility: 6 or more miles (10+ km)
Ceiling: ceiling and visibility are OK
Clouds: unknown
Weather: no significant weather observed at this time

METAR text: LOWW 201720Z 12006KT 090V150 CAVOK 29/17 Q1017 NOSIG
Conditions at: LOWW (VIENNA/SCHWECHAT, AT) observed 1720 UTC 20 August 2019
Temperature: 29.0°C (84°F)
Dewpoint: 17.0°C (63°F) [RH = 48%]
Pressure (altimeter): 30.03 inches Hg (1017.0 mb)
Winds: from the ESE (120 degrees) at 7 MPH (6 knots; 3.1 m/s)
Visibility: 6 or more miles (10+ km)
Ceiling: ceiling and visibility are OK
Clouds: unknown
Weather: no significant weather observed at this time

METAR text: LOWW 201650Z 07005KT 050V110 CAVOK 29/18 Q1017 NOSIG
Conditions at: LOWW (VIENNA/SCHWECHAT, AT) observed 1650 UTC 20 August 2019
Temperature: 29.0°C (84°F)
Dewpoint: 18.0°C (64°F) [RH = 52%]
Pressure (altimeter): 30.03 inches Hg (1017.0 mb)
Winds: from the ENE (70 degrees) at 6 MPH (5 knots; 2.6 m/s)
Visibility: 6 or more miles (10+ km)
Ceiling: ceiling and visibility are OK
Clouds: unknown
Weather: no significant weather observed at this time

METAR text: LOWW 201620Z 11006KT 9999 FEW050 BKN060 30/17 Q1017 NOSIG
Conditions at: LOWW (VIENNA/SCHWECHAT, AT) observed 1620 UTC 20 August 2019
Temperature: 30.0°C (86°F)
Dewpoint: 17.0°C (63°F) [RH = 46%]
Pressure (altimeter): 30.03 inches Hg (1017.0 mb)
Winds: from the ESE (110 degrees) at 7 MPH (6 knots; 3.1 m/s)
Visibility: 6 or more miles (10+ km)
Ceiling: 6000 feet AGL
Clouds: few clouds at 5000 feet AGL
broken clouds at 6000 feet AGL
Weather: no significant weather observed at this time

METAR text: LOWW 201550Z 13007KT 9999 FEW050 BKN060 30/17 Q1017 NOSIG
Conditions at: LOWW (VIENNA/SCHWECHAT, AT) observed 1550 UTC 20 August 2019
Temperature: 30.0°C (86°F)
Dewpoint: 17.0°C (63°F) [RH = 46%]
Pressure (altimeter): 30.03 inches Hg (1017.0 mb)
Winds: from the SE (130 degrees) at 8 MPH (7 knots; 3.6 m/s)
Visibility: 6 or more miles (10+ km)
Ceiling: 6000 feet AGL
Clouds: few clouds at 5000 feet AGL
broken clouds at 6000 feet AGL
Weather: no significant weather observed at this time

METAR text: LOWW 201520Z 11006KT 080V150 9999 FEW050 SCT060 30/17 Q1017 NOSIG
Conditions at: LOWW (VIENNA/SCHWECHAT, AT) observed 1520 UTC 20 August 2019
Temperature: 30.0°C (86°F)
Dewpoint: 17.0°C (63°F) [RH = 46%]
Pressure (altimeter): 30.03 inches Hg (1017.0 mb)
Winds: from the ESE (110 degrees) at 7 MPH (6 knots; 3.1 m/s)
Visibility: 6 or more miles (10+ km)
Ceiling: at least 12,000 feet AGL
Clouds: few clouds at 5000 feet AGL
scattered clouds at 6000 feet AGL
Weather: no significant weather observed at this time

METAR text: LOWW 201450Z 15009KT 110V170 9999 FEW050 BKN300 30/17 Q1018 NOSIG
Conditions at: LOWW (VIENNA/SCHWECHAT, AT) observed 1450 UTC 20 August 2019
Temperature: 30.0°C (86°F)
Dewpoint: 17.0°C (63°F) [RH = 46%]
Pressure (altimeter): 30.06 inches Hg (1018.0 mb)
Winds: from the SSE (150 degrees) at 10 MPH (9 knots; 4.6 m/s)
Visibility: 6 or more miles (10+ km)
Ceiling: 30000 feet AGL
Clouds: few clouds at 5000 feet AGL
broken clouds at 30000 feet AGL
Weather: no significant weather observed at this time

METAR text: LOWW 201420Z 13011KT 9999 FEW050 BKN300 31/17 Q1018 NOSIG
Conditions at: LOWW (VIENNA/SCHWECHAT, AT) observed 1420 UTC 20 August 2019
Temperature: 31.0°C (88°F)
Dewpoint: 17.0°C (63°F) [RH = 43%]
Pressure (altimeter): 30.06 inches Hg (1018.0 mb)
Winds: from the SE (130 degrees) at 13 MPH (11 knots; 5.7 m/s)
Visibility: 6 or more miles (10+ km)
Ceiling: 30000 feet AGL
Clouds: few clouds at 5000 feet AGL
broken clouds at 30000 feet AGL
Weather: no significant weather observed at this time

METAR text: LOWW 201350Z 07005KT 020V150 9999 FEW050 BKN300 30/18 Q1018 BECMG 14010KT
Conditions at: LOWW (VIENNA/SCHWECHAT, AT) observed 1350 UTC 20 August 2019
Temperature: 30.0°C (86°F)
Dewpoint: 18.0°C (64°F) [RH = 49%]
Pressure (altimeter): 30.06 inches Hg (1018.0 mb)
Winds: from the ENE (70 degrees) at 6 MPH (5 knots; 2.6 m/s)
Visibility: 6 or more miles (10+ km)
Ceiling: 30000 feet AGL
Clouds: few clouds at 5000 feet AGL
broken clouds at 30000 feet AGL
Weather: no significant weather observed at this time

METAR text: LOWW 201320Z 06006KT 020V100 9999 FEW040 BKN300 29/18 Q1018 NOSIG
Conditions at: LOWW (VIENNA/SCHWECHAT, AT) observed 1320 UTC 20 August 2019
Temperature: 29.0°C (84°F)
Dewpoint: 18.0°C (64°F) [RH = 52%]
Pressure (altimeter): 30.06 inches Hg (1018.0 mb)
Winds: from the ENE (60 degrees) at 7 MPH (6 knots; 3.1 m/s)
Visibility: 6 or more miles (10+ km)
Ceiling: 30000 feet AGL
Clouds: few clouds at 4000 feet AGL
broken clouds at 30000 feet AGL
Weather: no significant weather observed at this time

METAR text: LOWW 201250Z 06005KT 010V170 9999 FEW040 BKN300 29/18 Q1019 NOSIG
Conditions at: LOWW (VIENNA/SCHWECHAT, AT) observed 1250 UTC 20 August 2019
Temperature: 29.0°C (84°F)
Dewpoint: 18.0°C (64°F) [RH = 52%]
Pressure (altimeter): 30.09 inches Hg (1019.0 mb)
Winds: from the ENE (60 degrees) at 6 MPH (5 knots; 2.6 m/s)
Visibility: 6 or more miles (10+ km)
Ceiling: 30000 feet AGL
Clouds: few clouds at 4000 feet AGL
broken clouds at 30000 feet AGL
Weather: no significant weather observed at this time

METAR text: LOWW 201220Z 04007KT 360V100 9999 FEW040 BKN300 28/17 Q1019 NOSIG
Conditions at: LOWW (VIENNA/SCHWECHAT, AT) observed 1220 UTC 20 August 2019
Temperature: 28.0°C (82°F)
Dewpoint: 17.0°C (63°F) [RH = 51%]
Pressure (altimeter): 30.09 inches Hg (1019.0 mb)
Winds: from the NE (40 degrees) at 8 MPH (7 knots; 3.6 m/s)
Visibility: 6 or more miles (10+ km)
Ceiling: 30000 feet AGL
Clouds: few clouds at 4000 feet AGL
broken clouds at 30000 feet AGL
Weather: no significant weather observed at this time

METAR text: LOWW 201150Z VRB04KT 9999 FEW040 SCT300 28/17 Q1019 NOSIG
Conditions at: LOWW (VIENNA/SCHWECHAT, AT) observed 1150 UTC 20 August 2019
Temperature: 28.0°C (82°F)
Dewpoint: 17.0°C (63°F) [RH = 51%]
Pressure (altimeter): 30.09 inches Hg (1019.0 mb)
Winds: variable direction winds at 5 MPH (4 knots; 2.1 m/s)
Visibility: 6 or more miles (10+ km)
Ceiling: at least 12,000 feet AGL
Clouds: few clouds at 4000 feet AGL
scattered clouds at 30000 feet AGL
Weather: no significant weather observed at this time

METAR text: LOWW 201120Z 04005KT 350V090 9999 FEW040 SCT300 27/17 Q1019 NOSIG
Conditions at: LOWW (VIENNA/SCHWECHAT, AT) observed 1120 UTC 20 August 2019
Temperature: 27.0°C (81°F)
Dewpoint: 17.0°C (63°F) [RH = 54%]
Pressure (altimeter): 30.09 inches Hg (1019.0 mb)
Winds: from the NE (40 degrees) at 6 MPH (5 knots; 2.6 m/s)
Visibility: 6 or more miles (10+ km)
Ceiling: at least 12,000 feet AGL
Clouds: few clouds at 4000 feet AGL
scattered clouds at 30000 feet AGL
Weather: no significant weather observed at this time

METAR text: LOWW 201050Z 35004KT 280V040 9999 FEW040 SCT300 27/17 Q1020 NOSIG
Conditions at: LOWW (VIENNA/SCHWECHAT, AT) observed 1050 UTC 20 August 2019
Temperature: 27.0°C (81°F)
Dewpoint: 17.0°C (63°F) [RH = 54%]
Pressure (altimeter): 30.12 inches Hg (1020.0 mb)
Winds: from the N (350 degrees) at 5 MPH (4 knots; 2.1 m/s)
Visibility: 6 or more miles (10+ km)
Ceiling: at least 12,000 feet AGL
Clouds: few clouds at 4000 feet AGL
scattered clouds at 30000 feet AGL
Weather: no significant weather observed at this time

METAR text: LOWW 201020Z VRB04KT 9999 FEW040 SCT300 26/18 Q1020 NOSIG
Conditions at: LOWW (VIENNA/SCHWECHAT, AT) observed 1020 UTC 20 August 2019
Temperature: 26.0°C (79°F)
Dewpoint: 18.0°C (64°F) [RH = 61%]
Pressure (altimeter): 30.12 inches Hg (1020.0 mb)
Winds: variable direction winds at 5 MPH (4 knots; 2.1 m/s)
Visibility: 6 or more miles (10+ km)
Ceiling: at least 12,000 feet AGL
Clouds: few clouds at 4000 feet AGL
scattered clouds at 30000 feet AGL
Weather: no significant weather observed at this time

METAR text: LOWW 200950Z 02005KT 340V080 9999 FEW040 SCT300 26/18 Q1020 NOSIG
Conditions at: LOWW (VIENNA/SCHWECHAT, AT) observed 0950 UTC 20 August 2019
Temperature: 26.0°C (79°F)
Dewpoint: 18.0°C (64°F) [RH = 61%]
Pressure (altimeter): 30.12 inches Hg (1020.0 mb)
Winds: from the NNE (20 degrees) at 6 MPH (5 knots; 2.6 m/s)
Visibility: 6 or more miles (10+ km)
Ceiling: at least 12,000 feet AGL
Clouds: few clouds at 4000 feet AGL
scattered clouds at 30000 feet AGL
Weather: no significant weather observed at this time

METAR text: LOWW 200920Z 03006KT 320V060 9999 FEW040 SCT300 25/17 Q1020 NOSIG
Conditions at: LOWW (VIENNA/SCHWECHAT, AT) observed 0920 UTC 20 August 2019
Temperature: 25.0°C (77°F)
Dewpoint: 17.0°C (63°F) [RH = 61%]
Pressure (altimeter): 30.12 inches Hg (1020.0 mb)
Winds: from the NNE (30 degrees) at 7 MPH (6 knots; 3.1 m/s)
Visibility: 6 or more miles (10+ km)
Ceiling: at least 12,000 feet AGL
Clouds: few clouds at 4000 feet AGL
scattered clouds at 30000 feet AGL
Weather: no significant weather observed at this time

METAR text: LOWW 200850Z 35006KT 310V020 9999 FEW040 SCT300 25/17 Q1020 NOSIG
Conditions at: LOWW (VIENNA/SCHWECHAT, AT) observed 0850 UTC 20 August 2019
Temperature: 25.0°C (77°F)
Dewpoint: 17.0°C (63°F) [RH = 61%]
Pressure (altimeter): 30.12 inches Hg (1020.0 mb)
Winds: from the N (350 degrees) at 7 MPH (6 knots; 3.1 m/s)
Visibility: 6 or more miles (10+ km)
Ceiling: at least 12,000 feet AGL
Clouds: few clouds at 4000 feet AGL
scattered clouds at 30000 feet AGL
Weather: no significant weather observed at this time

METAR text: LOWW 200820Z 35005KT 290V040 CAVOK 24/17 Q1020 NOSIG
Conditions at: LOWW (VIENNA/SCHWECHAT, AT) observed 0820 UTC 20 August 2019
Temperature: 24.0°C (75°F)
Dewpoint: 17.0°C (63°F) [RH = 65%]
Pressure (altimeter): 30.12 inches Hg (1020.0 mb)
Winds: from the N (350 degrees) at 6 MPH (5 knots; 2.6 m/s)
Visibility: 6 or more miles (10+ km)
Ceiling: ceiling and visibility are OK
Clouds: unknown
Weather: no significant weather observed at this time

METAR text: LOWW 200750Z 34004KT 280V020 CAVOK 23/17 Q1020 NOSIG
Conditions at: LOWW (VIENNA/SCHWECHAT, AT) observed 0750 UTC 20 August 2019
Temperature: 23.0°C (73°F)
Dewpoint: 17.0°C (63°F) [RH = 69%]
Pressure (altimeter): 30.12 inches Hg (1020.0 mb)
Winds: from the NNW (340 degrees) at 5 MPH (4 knots; 2.1 m/s)
Visibility: 6 or more miles (10+ km)
Ceiling: ceiling and visibility are OK
Clouds: unknown
Weather: no significant weather observed at this time

METAR text: LOWW 200720Z 35007KT 320V020 CAVOK 22/17 Q1020 NOSIG
Conditions at: LOWW (VIENNA/SCHWECHAT, AT) observed 0720 UTC 20 August 2019
Temperature: 22.0°C (72°F)
Dewpoint: 17.0°C (63°F) [RH = 73%]
Pressure (altimeter): 30.12 inches Hg (1020.0 mb)
Winds: from the N (350 degrees) at 8 MPH (7 knots; 3.6 m/s)
Visibility: 6 or more miles (10+ km)
Ceiling: ceiling and visibility are OK
Clouds: unknown
Weather: no significant weather observed at this time

METAR text: LOWW 200650Z 35006KT CAVOK 22/17 Q1020 NOSIG
Conditions at: LOWW (VIENNA/SCHWECHAT, AT) observed 0650 UTC 20 August 2019
Temperature: 22.0°C (72°F)
Dewpoint: 17.0°C (63°F) [RH = 73%]
Pressure (altimeter): 30.12 inches Hg (1020.0 mb)
Winds: from the N (350 degrees) at 7 MPH (6 knots; 3.1 m/s)
Visibility: 6 or more miles (10+ km)
Ceiling: ceiling and visibility are OK
Clouds: unknown
Weather: no significant weather observed at this time

METAR text: LOWW 200620Z 33006KT 9999 VCSH BKN060 FEW060TCU 21/17 Q1020 NOSIG
Conditions at: LOWW (VIENNA/SCHWECHAT, AT) observed 0620 UTC 20 August 2019
Temperature: 21.0°C (70°F)
Dewpoint: 17.0°C (63°F) [RH = 78%]
Pressure (altimeter): 30.12 inches Hg (1020.0 mb)
Winds: from the NNW (330 degrees) at 7 MPH (6 knots; 3.1 m/s)
Visibility: 6 or more miles (10+ km)
Ceiling: 6000 feet AGL
Clouds: broken clouds at 6000 feet AGL
few clouds at 6000 feet AGL
Weather: VCSH  (showers in vicinity)

METAR text: LOWW 200550Z 33005KT 9999 BKN060 FEW060TCU 21/17 Q1020 NOSIG
Conditions at: LOWW (VIENNA/SCHWECHAT, AT) observed 0550 UTC 20 August 2019
Temperature: 21.0°C (70°F)
Dewpoint: 17.0°C (63°F) [RH = 78%]
Pressure (altimeter): 30.12 inches Hg (1020.0 mb)
Winds: from the NNW (330 degrees) at 6 MPH (5 knots; 2.6 m/s)
Visibility: 6 or more miles (10+ km)
Ceiling: 6000 feet AGL
Clouds: broken clouds at 6000 feet AGL
few clouds at 6000 feet AGL
Weather: no significant weather observed at this time

METAR text: LOWW 200520Z 33006KT 9999 BKN060 FEW060TCU 21/17 Q1020 NOSIG
Conditions at: LOWW (VIENNA/SCHWECHAT, AT) observed 0520 UTC 20 August 2019
Temperature: 21.0°C (70°F)
Dewpoint: 17.0°C (63°F) [RH = 78%]
Pressure (altimeter): 30.12 inches Hg (1020.0 mb)
Winds: from the NNW (330 degrees) at 7 MPH (6 knots; 3.1 m/s)
Visibility: 6 or more miles (10+ km)
Ceiling: 6000 feet AGL
Clouds: broken clouds at 6000 feet AGL
few clouds at 6000 feet AGL
Weather: no significant weather observed at this time

METAR text: LOWW 200450Z 33004KT 9999 BKN060 FEW060TCU 21/17 Q1020 NOSIG
Conditions at: LOWW (VIENNA/SCHWECHAT, AT) observed 0450 UTC 20 August 2019
Temperature: 21.0°C (70°F)
Dewpoint: 17.0°C (63°F) [RH = 78%]
Pressure (altimeter): 30.12 inches Hg (1020.0 mb)
Winds: from the NNW (330 degrees) at 5 MPH (4 knots; 2.1 m/s)
Visibility: 6 or more miles (10+ km)
Ceiling: 6000 feet AGL
Clouds: broken clouds at 6000 feet AGL
few clouds at 6000 feet AGL
Weather: no significant weather observed at this time

METAR text: LOWW 200420Z 33004KT CAVOK 20/17 Q1020 NOSIG
Conditions at: LOWW (VIENNA/SCHWECHAT, AT) observed 0420 UTC 20 August 2019
Temperature: 20.0°C (68°F)
Dewpoint: 17.0°C (63°F) [RH = 83%]
Pressure (altimeter): 30.12 inches Hg (1020.0 mb)
Winds: from the NNW (330 degrees) at 5 MPH (4 knots; 2.1 m/s)
Visibility: 6 or more miles (10+ km)
Ceiling: ceiling and visibility are OK
Clouds: unknown
Weather: no significant weather observed at this time

METAR text: LOWW 200350Z 33005KT CAVOK 20/17 Q1019 NOSIG
Conditions at: LOWW (VIENNA/SCHWECHAT, AT) observed 0350 UTC 20 August 2019
Temperature: 20.0°C (68°F)
Dewpoint: 17.0°C (63°F) [RH = 83%]
Pressure (altimeter): 30.09 inches Hg (1019.0 mb)
Winds: from the NNW (330 degrees) at 6 MPH (5 knots; 2.6 m/s)
Visibility: 6 or more miles (10+ km)
Ceiling: ceiling and visibility are OK
Clouds: unknown
Weather: no significant weather observed at this time

METAR text: LOWW 200320Z 33006KT 9999 FEW060TCU SCT070 BKN120 20/17 Q1019 NOSIG
Conditions at: LOWW (VIENNA/SCHWECHAT, AT) observed 0320 UTC 20 August 2019
Temperature: 20.0°C (68°F)
Dewpoint: 17.0°C (63°F) [RH = 83%]
Pressure (altimeter): 30.09 inches Hg (1019.0 mb)
Winds: from the NNW (330 degrees) at 7 MPH (6 knots; 3.1 m/s)
Visibility: 6 or more miles (10+ km)
Ceiling: 12000 feet AGL
Clouds: few clouds at 6000 feet AGL
scattered clouds at 7000 feet AGL
broken clouds at 12000 feet AGL
Weather: no significant weather observed at this time

METAR text: LOWW 200250Z 33006KT 9999 BKN060 FEW060TCU 21/16 Q1019 NOSIG
Conditions at: LOWW (VIENNA/SCHWECHAT, AT) observed 0250 UTC 20 August 2019
Temperature: 21.0°C (70°F)
Dewpoint: 16.0°C (61°F) [RH = 73%]
Pressure (altimeter): 30.09 inches Hg (1019.0 mb)
Winds: from the NNW (330 degrees) at 7 MPH (6 knots; 3.1 m/s)
Visibility: 6 or more miles (10+ km)
Ceiling: 6000 feet AGL
Clouds: broken clouds at 6000 feet AGL
few clouds at 6000 feet AGL
Weather: no significant weather observed at this time

METAR text: LOWW 200220Z 33005KT 9999 SCT060 FEW060TCU BKN090 21/17 Q1019 NOSIG
Conditions at: LOWW (VIENNA/SCHWECHAT, AT) observed 0220 UTC 20 August 2019
Temperature: 21.0°C (70°F)
Dewpoint: 17.0°C (63°F) [RH = 78%]
Pressure (altimeter): 30.09 inches Hg (1019.0 mb)
Winds: from the NNW (330 degrees) at 6 MPH (5 knots; 2.6 m/s)
Visibility: 6 or more miles (10+ km)
Ceiling: 9000 feet AGL
Clouds: scattered clouds at 6000 feet AGL
few clouds at 6000 feet AGL
broken clouds at 9000 feet AGL
Weather: no significant weather observed at this time

Forecast for: LOWW (VIENNA/SCHWECHAT, AT)
Text: TAF LOWW 211115Z 2112/2218 32015KT 9999 SCT040 BKN100 TX24/2214Z TN15/2204Z
Forecast period: 1200 UTC 21 August 2019 to 1800 UTC 22 August 2019
Forecast type: FROM: standard forecast or significant change
Winds: from the NW (320 degrees) at 17 MPH (15 knots; 7.7 m/s)
Visibility: 6 or more miles 10+ km)
Ceiling: 10000 feet AGL
Clouds: scattered clouds at 4000 feet AGL
broken clouds at 10000 feet AGL
Weather: no significant weather forecast for this period
Text: TEMPO 2112/2113 SHRA BKN035 FEW040TCU
Forecast period: 1200 to 1300 UTC 21 August 2019
Forecast type: TEMPORARY: The following changes expected for less than half the time period
Visibility: missing
Ceiling: 3500 feet AGL
Clouds: broken clouds at 3500 feet AGL
few clouds at 4000 feet AGL
Weather: SHRA  (rain showers)
Text: BECMG 2112/2115 34008KT
Forecast period: 1200 UTC 21 August 2019 to 1200 UTC 22 August 2019
Forecast type: BECOMING: Conditions expected to become as follows by 1500 UTC 21 August 2019
Winds: from the NNW (340 degrees) at 9 MPH (8 knots; 4.1 m/s)
Visibility: 6 or more miles 10+ km)
Ceiling: 10000 feet AGL
Clouds: scattered clouds at 4000 feet AGL
broken clouds at 10000 feet AGL
Weather: no significant weather forecast for this period
Text: TEMPO 2202/2213 SHRA BKN040 FEW045TCU
Forecast period: 0200 to 1300 UTC 22 August 2019
Forecast type: TEMPORARY: The following changes expected for less than half the time period
Visibility: missing
Ceiling: 4000 feet AGL
Clouds: broken clouds at 4000 feet AGL
few clouds at 4500 feet AGL
Weather: SHRA  (rain showers)
Text: BECMG 2212/2215 05005KT
Forecast period: 1200 to 1800 UTC 22 August 2019
Forecast type: BECOMING: Conditions expected to become as follows by 1500 UTC 22 August 2019
Winds: from the NE (50 degrees) at 6 MPH (5 knots; 2.6 m/s)
Visibility: 6 or more miles 10+ km)
Ceiling: 10000 feet AGL
Clouds: scattered clouds at 4000 feet AGL
broken clouds at 10000 feet AGL
Weather: no significant weather forecast for this period